Time;durP1;ratioP1;P1;durP2;ratioP2;P2;SDS_P1;SDS_P2;PMS_P1;PMS_P2;Temp;Humidity;BMP_temperature;BMP_pressure;BME280_temperature;BME280_humidity;BME280_pressure;Samples;Min_cycle;Max_cycle;Signal;HPM_P1;HPM_P2
2021/05/10 00:02:04;;;;;;;11.90;9.60;;;16.00;99.90;;;;;;5110761;27;20042;-82
2021/05/10 00:04:30;;;;;;;13.27;9.70;;;16.00;99.90;;;;;;5143552;27;20117;-82
2021/05/10 00:06:59;;;;;;;14.02;9.70;;;16.00;99.90;;;;;;5128855;27;20031;-82
2021/05/10 00:09:25;;;;;;;13.85;10.50;;;16.00;99.90;;;;;;5143844;27;20084;-82
2021/05/10 00:11:54;;;;;;;13.13;10.38;;;16.00;99.90;;;;;;5101106;27;20051;-82
2021/05/10 00:14:37;;;;;;;14.73;10.88;;;16.00;99.90;;;;;;5127878;27;20031;-82
2021/05/10 00:17:03;;;;;;;14.48;10.70;;;16.10;99.90;;;;;;5119682;27;20023;-82
2021/05/10 00:19:28;;;;;;;16.98;10.18;;;15.90;99.90;;;;;;5124197;27;20432;-82
2021/05/10 00:21:54;;;;;;;13.35;10.05;;;15.80;99.90;;;;;;5128643;27;20035;-82
2021/05/10 00:24:20;;;;;;;13.95;9.38;;;15.80;99.90;;;;;;5125813;27;20068;-82
2021/05/10 00:26:46;;;;;;;12.57;9.52;;;15.80;99.90;;;;;;5123334;27;20065;-82
2021/05/10 00:29:12;;;;;;;13.93;9.40;;;15.70;99.90;;;;;;5128408;27;20077;-82
2021/05/10 00:31:37;;;;;;;14.88;9.90;;;15.70;99.90;;;;;;5124147;27;20042;-82
2021/05/10 00:34:03;;;;;;;13.43;9.88;;;15.70;99.90;;;;;;5122446;27;20188;-82
2021/05/10 00:36:30;;;;;;;13.57;9.77;;;15.50;99.90;;;;;;5124743;27;20043;-82
2021/05/10 00:38:55;;;;;;;14.50;8.90;;;15.50;99.90;;;;;;5124232;27;20035;-82
2021/05/10 00:41:22;;;;;;;15.25;9.85;;;15.50;99.90;;;;;;5129628;27;20043;-82
2021/05/10 00:43:47;;;;;;;15.07;9.63;;;15.50;99.90;;;;;;5124197;27;20039;-82
2021/05/10 00:46:13;;;;;;;13.82;9.20;;;15.30;99.90;;;;;;5123535;27;20110;-82
2021/05/10 00:48:40;;;;;;;11.63;9.43;;;15.40;99.90;;;;;;5129521;27;20044;-82
2021/05/10 00:51:06;;;;;;;12.15;9.65;;;15.30;99.90;;;;;;5134248;27;20042;-82
2021/05/10 00:54:09;;;;;;;12.30;9.73;;;15.30;99.90;;;;;;5121775;27;20040;-82
2021/05/10 00:56:35;;;;;;;13.80;9.23;;;15.30;99.90;;;;;;5147362;27;20031;-81
2021/05/10 00:59:02;;;;;;;16.48;9.85;;;15.30;99.90;;;;;;5142900;27;20435;-82
2021/05/10 01:01:28;;;;;;;14.27;10.25;;;15.30;99.90;;;;;;5129122;27;20046;-82
2021/05/10 01:03:54;;;;;;;14.63;10.48;;;15.30;99.90;;;;;;5130934;27;20035;-82
2021/05/10 01:06:21;;;;;;;13.70;10.63;;;15.30;99.90;;;;;;5127292;27;20031;-82
2021/05/10 01:08:47;;;;;;;15.80;10.25;;;15.20;99.90;;;;;;5114229;27;20031;-82
2021/05/10 01:11:13;;;;;;;15.85;11.00;;;15.30;99.90;;;;;;5121904;27;20134;-82
2021/05/10 01:13:39;;;;;;;14.82;11.10;;;15.30;99.90;;;;;;5121394;27;20636;-82
2021/05/10 01:16:05;;;;;;;15.45;11.30;;;15.50;99.90;;;;;;5126843;27;20031;-82
2021/05/10 01:18:32;;;;;;;15.98;11.75;;;15.30;99.90;;;;;;5128622;27;20518;-83
2021/05/10 01:20:59;;;;;;;14.98;12.38;;;15.30;99.90;;;;;;5120533;27;20038;-82
2021/05/10 01:23:25;;;;;;;15.73;12.52;;;15.50;99.90;;;;;;5126194;27;20620;-82
2021/05/10 01:25:51;;;;;;;18.17;12.05;;;15.40;99.90;;;;;;5126266;27;20054;-82
2021/05/10 01:28:18;;;;;;;19.33;12.68;;;15.30;99.90;;;;;;5129069;27;20035;-82
2021/05/10 01:30:48;;;;;;;16.90;12.35;;;15.30;99.90;;;;;;5119913;27;20459;-82
2021/05/10 01:33:15;;;;;;;18.10;13.13;;;15.30;99.90;;;;;;5123164;27;20473;-82
2021/05/10 01:35:43;;;;;;;21.10;14.63;;;15.40;99.90;;;;;;5125792;27;20035;-82
2021/05/10 01:38:10;;;;;;;18.50;14.27;;;15.40;99.90;;;;;;5113711;27;20483;-82
2021/05/10 01:40:36;;;;;;;15.80;13.65;;;15.40;99.90;;;;;;5125925;27;20116;-82
2021/05/10 01:43:03;;;;;;;22.13;14.85;;;15.40;99.90;;;;;;5123164;27;20533;-82
2021/05/10 01:45:29;;;;;;;19.38;14.52;;;15.40;99.90;;;;;;5127288;27;20031;-82
2021/05/10 01:48:01;;;;;;;20.10;14.10;;;15.40;99.90;;;;;;5127649;27;20327;-82
2021/05/10 01:50:47;;;;;;;16.80;13.77;;;15.40;99.90;;;;;;5121569;27;20050;-82
2021/05/10 01:53:14;;;;;;;18.73;13.93;;;15.40;99.90;;;;;;5126845;27;20032;-82
2021/05/10 01:55:41;;;;;;;16.10;13.23;;;15.40;99.90;;;;;;5120712;27;20065;-82
2021/05/10 01:58:09;;;;;;;19.48;12.60;;;15.40;99.90;;;;;;5127515;27;20566;-82
2021/05/10 02:00:42;;;;;;;19.75;13.48;;;15.40;99.90;;;;;;5126499;27;20110;-82
2021/05/10 02:03:13;;;;;;;18.45;13.55;;;15.40;99.90;;;;;;5121428;27;20027;-82
2021/05/10 02:05:41;;;;;;;18.10;12.60;;;15.30;99.90;;;;;;5123530;27;20027;-82
2021/05/10 02:08:08;;;;;;;18.17;12.50;;;15.40;99.90;;;;;;5120649;27;20031;-82
2021/05/10 02:10:37;;;;;;;17.13;12.75;;;15.40;99.90;;;;;;5129400;27;20061;-82
2021/05/10 02:13:05;;;;;;;17.50;13.02;;;15.40;99.90;;;;;;5121150;27;20042;-82
2021/05/10 02:15:35;;;;;;;17.38;13.20;;;15.40;99.90;;;;;;5146380;27;20035;-82
2021/05/10 02:18:01;;;;;;;16.67;13.05;;;15.50;99.90;;;;;;5127450;27;20069;-82
2021/05/10 02:20:29;;;;;;;22.50;12.70;;;15.40;99.90;;;;;;5144195;27;20035;-82
2021/05/10 02:23:00;;;;;;;19.08;13.18;;;15.40;99.90;;;;;;5125252;27;20109;-82
2021/05/10 02:25:32;;;;;;;18.17;13.00;;;15.40;99.90;;;;;;5148781;27;20022;-82
2021/05/10 02:27:58;;;;;;;20.85;13.25;;;15.40;99.90;;;;;;5110115;27;20043;-82
2021/05/10 02:30:26;;;;;;;20.50;13.77;;;15.30;99.90;;;;;;5124029;27;20038;-82
2021/05/10 02:32:53;;;;;;;21.13;14.55;;;15.50;99.90;;;;;;5130718;27;20038;-82
2021/05/10 02:35:39;;;;;;;17.65;14.25;;;15.50;99.90;;;;;;5134517;27;20527;-82
2021/05/10 02:38:06;;;;;;;23.02;13.88;;;15.50;99.90;;;;;;5125971;27;20042;-82
2021/05/10 02:40:32;;;;;;;21.08;13.90;;;15.50;99.90;;;;;;5127998;27;20046;-82
2021/05/10 02:42:57;;;;;;;22.85;14.27;;;15.40;99.90;;;;;;5129074;27;20058;-82
2021/05/10 02:45:24;;;;;;;21.45;14.13;;;15.40;99.90;;;;;;5133028;27;20049;-82
2021/05/10 02:47:50;;;;;;;18.38;14.05;;;15.40;99.90;;;;;;5148428;27;20469;-82
2021/05/10 02:50:22;;;;;;;21.23;13.70;;;15.30;99.90;;;;;;5129130;27;20032;-82
2021/05/10 02:52:49;;;;;;;21.50;14.20;;;15.40;99.90;;;;;;5116659;27;20050;-82
2021/05/10 02:55:19;;;;;;;24.98;14.38;;;15.40;99.90;;;;;;5147833;27;20079;-82
2021/05/10 02:57:46;;;;;;;25.75;14.27;;;15.40;99.90;;;;;;5126907;27;20091;-82
2021/05/10 03:00:14;;;;;;;26.98;14.82;;;15.40;99.90;;;;;;5150866;27;20046;-82
2021/05/10 03:02:41;;;;;;;23.45;14.40;;;15.30;99.90;;;;;;5149828;27;20031;-82
2021/05/10 03:05:09;;;;;;;23.17;14.02;;;15.30;99.90;;;;;;5167339;27;20052;-82
2021/05/10 03:07:36;;;;;;;20.52;14.60;;;15.40;99.90;;;;;;5157127;27;20533;-82
2021/05/10 03:10:09;;;;;;;24.67;14.70;;;15.30;99.90;;;;;;5135803;27;21683;-82
2021/05/10 03:12:35;;;;;;;22.13;14.70;;;15.40;99.90;;;;;;5154761;27;20038;-82
2021/05/10 03:15:01;;;;;;;19.23;14.05;;;15.60;99.90;;;;;;5140344;27;20063;-82
2021/05/10 03:17:27;;;;;;;29.17;13.85;;;15.50;99.90;;;;;;5144478;27;20046;-83
2021/05/10 03:19:53;;;;;;;22.58;14.80;;;15.50;99.90;;;;;;5131783;27;20059;-82
2021/05/10 03:22:18;;;;;;;18.05;14.93;;;15.60;99.90;;;;;;5151843;27;20035;-82
2021/05/10 03:24:44;;;;;;;24.45;15.18;;;15.40;99.90;;;;;;5130649;27;20030;-82
2021/05/10 03:27:10;;;;;;;21.48;15.20;;;15.60;99.90;;;;;;5149790;27;20065;-82
2021/05/10 03:29:36;;;;;;;21.15;15.70;;;15.40;99.90;;;;;;5151643;27;20518;-82
2021/05/10 03:32:02;;;;;;;28.42;15.95;;;15.50;99.90;;;;;;5149874;27;20035;-82
2021/05/10 03:34:28;;;;;;;25.60;16.45;;;15.50;99.90;;;;;;5151160;27;20142;-82
2021/05/10 03:36:54;;;;;;;25.40;15.68;;;15.50;99.90;;;;;;5145333;27;20191;-82
2021/05/10 03:39:19;;;;;;;23.50;15.10;;;15.40;99.90;;;;;;5124837;27;20035;-82
2021/05/10 03:41:45;;;;;;;20.80;15.43;;;15.50;99.90;;;;;;5125021;27;20027;-82
2021/05/10 03:44:11;;;;;;;20.25;14.77;;;15.50;99.90;;;;;;5124509;27;20049;-82
2021/05/10 03:46:37;;;;;;;21.30;14.48;;;15.50;99.90;;;;;;5126797;27;20159;-82
2021/05/10 03:49:03;;;;;;;20.92;13.95;;;15.40;99.90;;;;;;5147333;27;20031;-82
2021/05/10 03:51:29;;;;;;;25.48;15.13;;;15.50;99.90;;;;;;5150585;27;20049;-82
2021/05/10 03:53:55;;;;;;;21.40;14.90;;;15.50;99.90;;;;;;5130769;27;20035;-82
2021/05/10 03:56:21;;;;;;;19.90;14.90;;;15.60;99.90;;;;;;5124414;27;20405;-82
2021/05/10 03:58:47;;;;;;;20.63;15.07;;;15.70;99.90;;;;;;5124595;27;20196;-82
2021/05/10 04:01:12;;;;;;;23.33;15.80;;;15.70;99.90;;;;;;5126969;27;20113;-82
2021/05/10 04:03:48;;;;;;;18.50;14.02;;;15.80;99.90;;;;;;5149882;27;20114;-82
2021/05/10 04:13:55;;;;;;;24.67;13.68;;;15.90;99.90;;;;;;5125578;27;20050;-82
2021/05/10 04:16:21;;;;;;;18.88;13.55;;;15.90;99.90;;;;;;5125660;27;20026;-83
2021/05/10 04:18:47;;;;;;;20.17;14.30;;;16.00;99.90;;;;;;5111439;27;20077;-82
2021/05/10 04:21:13;;;;;;;20.13;13.15;;;15.90;99.90;;;;;;5123233;27;20066;-82
2021/05/10 04:23:39;;;;;;;18.02;12.93;;;16.00;99.90;;;;;;5145045;27;20388;-82
2021/05/10 04:26:05;;;;;;;16.10;11.93;;;15.90;99.90;;;;;;5153119;27;20074;-82
2021/05/10 04:28:31;;;;;;;17.83;12.35;;;15.90;99.90;;;;;;5150026;27;20878;-83
2021/05/10 04:30:57;;;;;;;15.20;11.30;;;15.90;99.90;;;;;;5127013;27;20037;-82
2021/05/10 04:33:30;;;;;;;17.75;11.60;;;15.90;99.90;;;;;;5126753;27;20458;-82
2021/05/10 04:35:57;;;;;;;18.60;11.70;;;15.90;99.90;;;;;;5126837;27;20087;-82
2021/05/10 04:38:29;;;;;;;16.38;12.63;;;15.90;99.90;;;;;;5127974;27;20123;-82
2021/05/10 04:40:55;;;;;;;15.95;10.88;;;16.00;99.90;;;;;;5122918;27;20107;-82
2021/05/10 04:43:22;;;;;;;17.48;11.18;;;16.10;99.90;;;;;;5131767;27;20096;-83
2021/05/10 04:45:48;;;;;;;18.20;11.15;;;16.10;99.90;;;;;;5126180;27;20114;-80
2021/05/10 04:48:14;;;;;;;15.73;10.88;;;16.00;99.90;;;;;;5124476;27;20039;-80
2021/05/10 04:50:40;;;;;;;17.10;10.98;;;16.10;99.90;;;;;;5148491;27;20038;-81
2021/05/10 04:53:11;;;;;;;14.38;10.27;;;16.10;99.90;;;;;;5126584;27;20052;-81
2021/05/10 04:55:39;;;;;;;13.55;9.75;;;16.20;99.90;;;;;;5146221;27;20037;-81
2021/05/10 04:58:05;;;;;;;15.18;10.40;;;16.20;99.90;;;;;;5149473;27;20030;-81
2021/05/10 05:00:31;;;;;;;13.10;10.25;;;16.20;99.90;;;;;;5138031;27;20465;-82
2021/05/10 05:02:57;;;;;;;15.73;9.60;;;16.20;99.90;;;;;;5145486;27;20490;-81
2021/05/10 05:05:23;;;;;;;15.15;10.00;;;16.10;99.90;;;;;;5125687;27;20059;-80
2021/05/10 05:07:49;;;;;;;14.13;9.35;;;16.10;99.90;;;;;;5142457;27;20049;-81
2021/05/10 05:10:15;;;;;;;13.02;9.52;;;16.10;99.90;;;;;;5106812;27;20065;-80
2021/05/10 05:12:41;;;;;;;13.80;9.77;;;16.10;99.90;;;;;;5105434;27;20039;-80
2021/05/10 05:15:09;;;;;;;11.93;8.93;;;16.10;99.90;;;;;;5130056;27;20031;-82
2021/05/10 05:17:36;;;;;;;11.77;8.98;;;16.20;99.90;;;;;;5121638;27;20140;-81
2021/05/10 05:20:06;;;;;;;11.20;7.82;;;16.20;99.90;;;;;;5126450;27;20448;-79
2021/05/10 05:22:32;;;;;;;13.05;8.10;;;16.30;99.90;;;;;;5128725;27;20031;-81
2021/05/10 05:25:01;;;;;;;13.63;6.95;;;16.50;99.90;;;;;;5127586;27;21892;-77
2021/05/10 05:27:28;;;;;;;12.13;6.53;;;16.70;99.90;;;;;;5124025;27;20130;-78
2021/05/10 05:29:54;;;;;;;12.25;6.45;;;16.90;99.90;;;;;;5122943;27;20039;-78
2021/05/10 05:32:22;;;;;;;11.02;6.30;;;17.10;99.90;;;;;;5152440;27;20033;-77
2021/05/10 05:34:49;;;;;;;11.73;6.07;;;17.20;99.90;;;;;;5127189;27;20034;-79
2021/05/10 05:37:15;;;;;;;8.00;5.30;;;17.40;99.90;;;;;;5112499;27;20532;-79
2021/05/10 05:39:41;;;;;;;7.93;4.93;;;17.40;99.90;;;;;;5148410;27;20109;-80
2021/05/10 05:42:07;;;;;;;8.25;4.97;;;17.40;99.90;;;;;;5141675;27;20049;-80
2021/05/10 05:44:36;;;;;;;7.18;5.25;;;17.50;99.90;;;;;;5109659;27;20494;-80
2021/05/10 05:47:05;;;;;;;10.60;5.53;;;17.50;99.90;;;;;;5129438;27;20057;-81
2021/05/10 05:49:34;;;;;;;8.43;4.80;;;17.60;99.90;;;;;;5110427;27;20104;-80
2021/05/10 05:52:03;;;;;;;8.95;4.38;;;17.60;99.90;;;;;;5127847;27;20095;-81
2021/05/10 05:54:29;;;;;;;8.63;4.00;;;17.60;99.90;;;;;;5142989;27;20083;-78
2021/05/10 05:56:55;;;;;;;10.27;4.20;;;17.70;99.90;;;;;;5146036;27;20042;-77
2021/05/10 05:59:20;;;;;;;8.70;3.70;;;17.70;99.90;;;;;;5129334;27;20075;-78
2021/05/10 06:01:48;;;;;;;10.00;3.45;;;17.80;99.90;;;;;;5106617;27;20130;-78
2021/05/10 06:04:15;;;;;;;7.20;3.35;;;18.00;99.90;;;;;;5147204;27;20035;-80
2021/05/10 06:06:41;;;;;;;8.00;3.00;;;18.20;99.90;;;;;;5112869;27;20103;-80
2021/05/10 06:09:08;;;;;;;8.15;2.85;;;18.30;99.90;;;;;;5123152;27;20071;-80
2021/05/10 06:11:35;;;;;;;7.20;3.05;;;18.50;99.90;;;;;;5129212;27;20051;-80
2021/05/10 06:14:01;;;;;;;11.52;2.85;;;18.60;99.90;;;;;;5126884;27;20489;-79
2021/05/10 06:16:28;;;;;;;6.10;2.50;;;18.80;99.90;;;;;;5144615;27;20059;-80
2021/05/10 06:18:54;;;;;;;3.28;2.38;;;18.90;99.90;;;;;;5132867;27;20536;-81
2021/05/10 06:21:20;;;;;;;3.90;2.20;;;18.90;99.90;;;;;;5105758;27;20046;-80
2021/05/10 06:23:48;;;;;;;4.82;2.00;;;18.90;99.90;;;;;;5124979;27;20054;-80
2021/05/10 06:26:14;;;;;;;8.80;2.13;;;19.00;99.90;;;;;;5128894;27;20034;-79
2021/05/10 06:28:40;;;;;;;7.38;2.13;;;19.00;99.90;;;;;;5147105;27;20477;-80
2021/05/10 06:31:07;;;;;;;2.75;1.42;;;19.00;99.90;;;;;;5142785;27;20773;-80
2021/05/10 06:33:33;;;;;;;6.75;1.85;;;19.00;99.90;;;;;;5144245;27;20031;-80
2021/05/10 06:35:59;;;;;;;3.40;1.65;;;19.00;99.90;;;;;;5142946;27;20037;-80
2021/05/10 06:38:25;;;;;;;5.07;1.70;;;19.10;99.90;;;;;;5125780;27;20131;-80
2021/05/10 06:40:51;;;;;;;11.07;1.67;;;19.20;99.90;;;;;;5124910;27;20455;-79
2021/05/10 06:43:18;;;;;;;9.35;1.60;;;19.20;99.90;;;;;;5109381;27;20042;-79
2021/05/10 06:45:44;;;;;;;5.05;1.45;;;19.20;99.90;;;;;;5146326;27;20035;-82
2021/05/10 06:48:10;;;;;;;3.10;1.70;;;19.20;99.90;;;;;;5146948;27;20071;-83
2021/05/10 06:50:36;;;;;;;9.00;1.50;;;19.30;99.90;;;;;;5143221;27;20066;-82
2021/05/10 06:53:02;;;;;;;2.97;1.45;;;19.30;99.90;;;;;;5142809;27;20062;-83
2021/05/10 06:55:28;;;;;;;3.55;1.60;;;19.30;99.90;;;;;;5128158;27;20046;-82
2021/05/10 06:57:54;;;;;;;3.67;1.67;;;19.40;99.90;;;;;;5123159;27;20031;-82
2021/05/10 07:00:19;;;;;;;7.68;1.40;;;19.50;99.90;;;;;;5123175;27;20549;-82
2021/05/10 07:02:45;;;;;;;5.82;1.33;;;19.50;99.90;;;;;;5148254;27;20113;-81
2021/05/10 07:05:11;;;;;;;7.13;1.80;;;19.60;99.90;;;;;;5130977;27;20035;-82
2021/05/10 07:07:37;;;;;;;4.30;1.60;;;19.60;99.90;;;;;;5127764;27;20125;-81
2021/05/10 07:10:05;;;;;;;5.32;1.40;;;19.60;99.90;;;;;;5124266;27;20099;-81
2021/05/10 07:12:31;;;;;;;5.90;1.80;;;19.60;99.90;;;;;;5129055;27;20486;-81
2021/05/10 07:14:56;;;;;;;8.07;1.52;;;19.70;99.90;;;;;;5148975;27;20035;-81
2021/05/10 07:17:22;;;;;;;5.38;1.40;;;19.60;99.90;;;;;;5120785;27;20091;-81
2021/05/10 07:19:48;;;;;;;7.28;1.73;;;19.60;99.90;;;;;;5105706;27;20038;-81
2021/05/10 07:22:14;;;;;;;7.22;1.58;;;19.60;99.90;;;;;;5129851;27;20410;-82
2021/05/10 07:24:40;;;;;;;10.20;1.70;;;19.60;99.90;;;;;;5120098;27;20047;-81
2021/05/10 07:27:06;;;;;;;10.13;1.80;;;19.60;99.90;;;;;;5127829;27;20380;-81
2021/05/10 07:29:34;;;;;;;6.32;1.58;;;19.50;99.90;;;;;;5110845;27;20122;-80
2021/05/10 07:32:00;;;;;;;6.00;1.80;;;19.30;99.90;;;;;;5115333;27;20210;-81
2021/05/10 07:34:26;;;;;;;4.00;1.70;;;19.20;99.90;;;;;;5132614;27;20884;-81
2021/05/10 07:36:51;;;;;;;6.95;1.88;;;19.00;99.90;;;;;;5147463;27;20117;-81
2021/05/10 07:39:19;;;;;;;6.70;1.80;;;18.80;99.90;;;;;;5124070;27;20066;-81
2021/05/10 07:41:45;;;;;;;4.13;1.48;;;18.70;99.90;;;;;;5142216;27;20076;-81
2021/05/10 07:44:10;;;;;;;6.57;1.52;;;18.60;99.90;;;;;;5117461;27;20042;-81
2021/05/10 07:46:36;;;;;;;6.75;1.50;;;18.50;99.90;;;;;;5113119;27;20151;-81
2021/05/10 07:49:03;;;;;;;3.05;1.25;;;18.40;99.90;;;;;;5152492;27;20043;-82
2021/05/10 07:51:29;;;;;;;3.67;1.30;;;18.30;99.90;;;;;;5116543;27;20067;-81
2021/05/10 07:53:56;;;;;;;2.38;1.20;;;18.20;99.90;;;;;;5121121;27;20041;-82
2021/05/10 07:56:24;;;;;;;3.20;0.60;;;18.20;99.90;;;;;;5134321;27;20039;-80
2021/05/10 07:58:52;;;;;;;2.33;0.77;;;18.10;99.90;;;;;;5111099;27;20133;-81
2021/05/10 08:01:18;;;;;;;1.65;0.63;;;18.00;99.90;;;;;;5129000;27;20038;-80
2021/05/10 08:03:45;;;;;;;1.65;0.63;;;18.00;99.90;;;;;;5134125;27;20431;-81
2021/05/10 08:06:12;;;;;;;3.00;0.70;;;18.10;99.90;;;;;;5152242;27;20477;-79
2021/05/10 08:08:38;;;;;;;3.13;0.77;;;18.50;99.90;;;;;;5124471;27;20106;-81
2021/05/10 08:11:05;;;;;;;2.17;0.82;;;18.60;99.90;;;;;;5141961;27;20129;-81
2021/05/10 08:13:31;;;;;;;4.60;0.88;;;18.60;99.90;;;;;;5119880;27;20496;-81
2021/05/10 08:15:57;;;;;;;2.38;0.80;;;18.60;99.90;;;;;;5124094;27;20030;-79
2021/05/10 08:18:24;;;;;;;1.40;0.82;;;18.60;99.90;;;;;;5110007;27;20120;-82
2021/05/10 08:20:50;;;;;;;2.30;0.80;;;18.60;99.90;;;;;;5139476;27;20104;-82
2021/05/10 08:23:16;;;;;;;2.95;0.70;;;18.70;99.90;;;;;;5144186;27;20038;-82
2021/05/10 08:25:42;;;;;;;2.22;1.00;;;18.70;99.90;;;;;;5139465;27;20039;-81
2021/05/10 08:28:08;;;;;;;4.60;0.90;;;18.70;99.90;;;;;;5124290;27;20043;-82
2021/05/10 08:30:34;;;;;;;2.67;0.80;;;18.80;99.90;;;;;;5146910;27;20441;-82
2021/05/10 08:33:01;;;;;;;2.55;0.85;;;18.80;99.90;;;;;;5125405;27;20058;-83
2021/05/10 08:35:28;;;;;;;2.95;0.85;;;18.80;99.90;;;;;;5135075;27;20170;-83
2021/05/10 08:37:53;;;;;;;1.05;0.80;;;18.80;99.90;;;;;;5149797;27;20703;-82
2021/05/10 08:40:19;;;;;;;2.70;1.20;;;18.80;99.90;;;;;;5150282;27;20035;-82
2021/05/10 08:42:45;;;;;;;2.05;0.90;;;18.80;99.90;;;;;;5149644;27;20481;-82
2021/05/10 08:45:22;;;;;;;2.03;1.10;;;18.60;99.90;;;;;;5125801;27;20050;-82
2021/05/10 08:47:48;;;;;;;3.90;1.10;;;18.50;99.90;;;;;;5147597;27;20042;-82
2021/05/10 08:50:15;;;;;;;1.90;0.80;;;18.40;99.90;;;;;;5125103;27;20057;-82
2021/05/10 08:52:42;;;;;;;1.63;0.90;;;18.50;99.90;;;;;;5125938;27;20043;-82
2021/05/10 08:55:12;;;;;;;0.98;0.90;;;18.60;99.90;;;;;;5106125;27;20455;-82
2021/05/10 08:57:38;;;;;;;3.30;1.00;;;18.80;99.90;;;;;;5147630;27;20530;-81
2021/05/10 09:00:05;;;;;;;7.03;1.35;;;19.10;99.90;;;;;;5146404;27;20039;-81
2021/05/10 09:02:32;;;;;;;1.92;1.10;;;19.40;99.90;;;;;;5146472;27;20103;-81
2021/05/10 09:05:17;;;;;;;2.65;1.20;;;19.40;99.90;;;;;;5150157;27;20485;-82
2021/05/10 09:07:45;;;;;;;3.40;1.25;;;19.50;99.90;;;;;;5149882;27;20030;-80
2021/05/10 09:10:15;;;;;;;2.10;1.10;;;19.60;99.90;;;;;;5128055;27;20047;-79
2021/05/10 09:12:52;;;;;;;4.13;1.10;;;19.50;99.90;;;;;;5129663;27;20161;-81
2021/05/10 09:15:22;;;;;;;1.95;1.15;;;19.50;99.90;;;;;;5141258;27;20114;-81
2021/05/10 09:17:53;;;;;;;1.67;0.95;;;19.40;99.90;;;;;;5133284;27;20043;-81
2021/05/10 09:20:28;;;;;;;2.13;1.10;;;19.50;99.90;;;;;;5132246;27;20132;-80
2021/05/10 09:22:55;;;;;;;;;;;19.70;99.90;;;;;;5146586;27;20026;-81
2021/05/10 09:25:31;;;;;;;2.10;1.27;;;19.90;99.90;;;;;;5126899;27;19921;-80
2021/05/10 09:28:20;;;;;;;2.70;1.40;;;20.20;99.90;;;;;;5120236;27;20432;-82
2021/05/10 09:30:47;;;;;;;3.53;1.50;;;20.40;99.90;;;;;;5120287;27;20034;-81
2021/05/10 09:33:23;;;;;;;4.10;1.17;;;20.40;99.90;;;;;;5131817;27;20047;-81
2021/05/10 09:35:50;;;;;;;2.05;1.10;;;20.30;99.90;;;;;;5127151;27;20050;-79
2021/05/10 09:38:20;;;;;;;2.40;1.13;;;20.20;99.90;;;;;;5106540;27;20055;-80
2021/05/10 09:40:54;;;;;;;5.50;1.20;;;19.80;99.90;;;;;;5106993;27;20051;-81
2021/05/10 09:43:25;;;;;;;2.30;0.90;;;19.50;99.90;;;;;;5105549;27;20409;-80
2021/05/10 09:45:55;;;;;;;1.88;0.90;;;19.30;99.90;;;;;;5125289;27;20102;-82
2021/05/10 09:48:30;;;;;;;1.42;1.17;;;18.90;99.90;;;;;;5151944;27;20034;-80
2021/05/10 09:51:04;;;;;;;1.98;0.93;;;18.40;99.90;;;;;;5143172;27;20046;-81
2021/05/10 09:53:33;;;;;;;1.75;1.02;;;18.00;99.90;;;;;;5146827;27;20034;-80
2021/05/10 09:56:00;;;;;;;1.05;0.98;;;17.80;99.90;;;;;;5124179;27;20061;-80
2021/05/10 09:58:40;;;;;;;1.33;1.10;;;17.70;99.90;;;;;;5146504;27;20062;-81
2021/05/10 10:01:07;;;;;;;2.92;1.00;;;17.50;99.90;;;;;;5125436;27;20129;-79
2021/05/10 10:03:36;;;;;;;1.58;0.70;;;17.30;99.90;;;;;;5145736;27;20039;-82
2021/05/10 10:06:05;;;;;;;0.85;0.63;;;16.90;99.90;;;;;;5128654;27;20134;-82
2021/05/10 10:08:31;;;;;;;0.90;0.70;;;16.60;99.90;;;;;;5129473;27;20350;-85
2021/05/10 10:10:58;;;;;;;0.80;0.52;;;16.30;99.90;;;;;;5109390;27;20035;-83
2021/05/10 10:13:25;;;;;;;1.35;0.70;;;16.10;99.90;;;;;;5145401;27;20487;-81
2021/05/10 10:15:51;;;;;;;3.50;0.75;;;15.80;99.90;;;;;;5144446;27;20023;-81
2021/05/10 10:18:22;;;;;;;2.15;0.70;;;15.70;99.90;;;;;;5110437;27;20469;-80
2021/05/10 10:20:50;;;;;;;0.60;0.60;;;15.60;99.90;;;;;;5147003;27;20045;-81
2021/05/10 10:23:27;;;;;;;1.08;0.70;;;15.50;99.90;;;;;;5141482;27;20114;-80
2021/05/10 10:25:56;;;;;;;1.92;0.70;;;15.40;99.90;;;;;;5123759;27;20533;-80
2021/05/10 10:28:24;;;;;;;1.80;0.70;;;15.40;99.90;;;;;;5112486;27;20271;-80
2021/05/10 10:31:04;;;;;;;0.50;0.50;;;15.50;99.90;;;;;;5127557;27;20462;-79
2021/05/10 10:33:49;;;;;;;1.77;1.00;;;15.70;99.90;;;;;;5125230;27;20489;-76
2021/05/10 10:36:23;;;;;;;1.20;0.70;;;15.80;99.90;;;;;;5147582;27;20038;-79
2021/05/10 10:39:12;;;;;;;0.90;0.60;;;15.80;99.90;;;;;;5130923;27;20445;-80
2021/05/10 10:41:54;;;;;;;0.70;0.68;;;15.80;99.90;;;;;;5148327;27;20027;-79
2021/05/10 10:44:56;;;;;;;1.80;0.80;;;15.80;99.90;;;;;;5143575;27;20485;-79
2021/05/10 10:47:45;;;;;;;1.88;1.00;;;15.80;99.90;;;;;;5111885;27;20043;-80
2021/05/10 10:50:18;;;;;;;1.20;0.95;;;16.00;99.90;;;;;;5129589;27;20041;-80
2021/05/10 10:52:51;;;;;;;1.33;0.85;;;16.10;99.90;;;;;;5113670;27;20375;-81
2021/05/10 10:55:25;;;;;;;1.88;0.80;;;16.20;99.90;;;;;;5121124;27;20088;-80
2021/05/10 10:57:53;;;;;;;3.25;1.00;;;16.30;99.90;;;;;;5146593;27;20069;-77
2021/05/10 11:00:19;;;;;;;1.25;0.90;;;16.30;99.90;;;;;;5125716;27;20043;-78
2021/05/10 11:02:55;;;;;;;1.67;1.05;;;16.40;99.90;;;;;;5128243;27;20054;-82
2021/05/10 11:05:27;;;;;;;2.97;1.20;;;16.50;99.90;;;;;;5133598;27;20033;-80
2021/05/10 11:07:58;;;;;;;2.05;1.00;;;16.50;99.90;;;;;;5148019;27;20466;-80
2021/05/10 11:10:48;;;;;;;2.03;1.00;;;16.60;99.90;;;;;;5131526;27;20095;-81
2021/05/10 11:13:42;;;;;;;2.47;1.10;;;16.60;99.90;;;;;;5135656;27;20055;-81
2021/05/10 11:16:18;;;;;;;1.65;1.10;;;16.70;99.90;;;;;;5145600;27;20046;-81
2021/05/10 11:18:49;;;;;;;2.17;1.30;;;16.80;99.90;;;;;;5135994;27;20073;-81
2021/05/10 11:21:21;;;;;;;3.20;1.30;;;16.90;99.90;;;;;;5126618;27;20043;-80
2021/05/10 11:23:50;;;;;;;2.47;1.20;;;17.00;99.90;;;;;;5122521;27;20095;-80
2021/05/10 11:27:02;;;;;;;3.00;1.35;;;17.00;99.90;;;;;;5127132;27;20558;-80
2021/05/10 11:29:29;;;;;;;3.60;1.38;;;17.00;99.90;;;;;;5129984;27;20169;-79
2021/05/10 11:32:23;;;;;;;2.20;1.10;;;17.00;99.90;;;;;;5127231;27;20055;-81
2021/05/10 11:34:51;;;;;;;3.80;1.23;;;17.10;99.90;;;;;;5036908;28;20400;-80
2021/05/10 11:37:27;;;;;;;4.35;1.10;;;17.10;99.90;;;;;;5045492;28;20116;-80
2021/05/10 11:39:55;;;;;;;3.72;1.10;;;17.10;99.90;;;;;;5050588;28;20138;-80
2021/05/10 11:42:26;;;;;;;3.88;1.27;;;17.10;99.90;;;;;;5043202;28;20116;-80
2021/05/10 11:44:58;;;;;;;2.35;1.23;;;17.10;99.90;;;;;;5042128;28;20123;-81
2021/05/10 11:47:23;;;;;;;3.75;0.90;;;17.20;99.90;;;;;;5030905;28;20045;-80
2021/05/10 11:49:50;;;;;;;5.03;1.25;;;17.30;99.90;;;;;;5041940;28;20417;-82
2021/05/10 11:52:25;;;;;;;2.75;1.50;;;17.40;99.90;;;;;;5027027;28;20077;-81
2021/05/10 11:55:01;;;;;;;6.20;1.48;;;17.60;99.90;;;;;;5052488;28;20146;-81
2021/05/10 11:57:31;;;;;;;4.60;1.20;;;17.80;99.90;;;;;;5022523;28;20427;-81
2021/05/10 12:02:28;;;;;;;3.53;1.23;;;17.90;99.90;;;;;;5050694;28;20043;-80
2021/05/10 12:04:56;;;;;;;4.93;1.50;;;17.90;99.90;;;;;;5041957;28;20091;-80
2021/05/10 12:07:26;;;;;;;3.45;1.20;;;17.90;99.90;;;;;;5034009;28;20063;-80
2021/05/10 12:10:01;;;;;;;4.80;1.50;;;17.90;99.90;;;;;;5041340;28;20049;-81
2021/05/10 12:12:28;;;;;;;;;;;18.00;99.90;;;;;;5122353;27;20109;-81
2021/05/10 12:15:01;;;;;;;3.22;1.20;;;17.90;99.90;;;;;;5129899;27;19919;-81
2021/05/10 12:17:28;;;;;;;4.28;1.30;;;18.00;99.90;;;;;;5110866;27;20129;-81
2021/05/10 12:20:11;;;;;;;4.72;1.25;;;18.10;99.90;;;;;;5123188;27;20083;-81
2021/05/10 12:22:44;;;;;;;3.00;1.05;;;18.10;99.90;;;;;;5110272;27;20555;-80
2021/05/10 12:25:22;;;;;;;4.25;1.02;;;18.10;99.90;;;;;;5137557;27;20088;-80
2021/05/10 12:27:49;;;;;;;5.90;1.40;;;18.10;99.90;;;;;;5152335;27;20061;-81
2021/05/10 12:30:38;;;;;;;5.75;1.55;;;17.70;99.90;;;;;;5151091;27;20393;-81
2021/05/10 12:33:12;;;;;;;4.30;1.30;;;17.50;99.90;;;;;;5110894;27;20045;-81
2021/05/10 12:35:43;;;;;;;6.30;1.40;;;17.50;99.90;;;;;;5120514;27;20203;-82
2021/05/10 12:38:10;;;;;;;7.05;1.52;;;17.50;99.90;;;;;;5106140;27;20039;-81
2021/05/10 12:40:44;;;;;;;3.72;1.30;;;17.50;99.90;;;;;;5154492;27;20042;-81
2021/05/10 12:43:17;;;;;;;4.72;1.40;;;17.40;99.90;;;;;;5129684;27;20038;-80
2021/05/10 12:45:45;;;;;;;5.15;1.60;;;17.40;99.90;;;;;;5103683;27;20053;-81
2021/05/10 12:48:12;;;;;;;7.03;1.60;;;17.40;99.90;;;;;;5129640;27;20054;-78
2021/05/10 12:50:42;;;;;;;8.93;2.10;;;17.20;99.90;;;;;;5143663;27;20035;-82
2021/05/10 12:53:08;;;;;;;5.43;1.80;;;17.10;99.90;;;;;;5126991;27;20094;-78
2021/05/10 12:55:36;;;;;;;5.07;1.58;;;17.00;99.90;;;;;;5146702;27;20038;-81
2021/05/10 12:58:23;;;;;;;4.38;1.70;;;17.00;99.90;;;;;;5126997;27;20055;-79
2021/05/10 13:00:50;;;;;;;3.70;1.50;;;16.90;99.90;;;;;;5109074;27;20063;-80